sensor_id;sensor_type;location;lat;lon;timestamp;P1;durP1;ratioP1;P2;durP2;ratioP2
15616;SDS011;7908;51.688;7.130;2023-03-23T00:01:19;11.13;;;8.03;;
15616;SDS011;7908;51.688;7.130;2023-03-23T00:03:50;11.60;;;7.30;;
15616;SDS011;7908;51.688;7.130;2023-03-23T00:06:19;8.77;;;7.40;;
15616;SDS011;7908;51.688;7.130;2023-03-23T00:08:48;11.10;;;6.77;;
15616;SDS011;7908;51.688;7.130;2023-03-23T00:11:22;10.03;;;6.30;;
15616;SDS011;7908;51.688;7.130;2023-03-23T00:13:54;10.60;;;6.10;;
15616;SDS011;7908;51.688;7.130;2023-03-23T00:16:28;8.20;;;6.03;;
15616;SDS011;7908;51.688;7.130;2023-03-23T00:18:58;10.17;;;6.63;;
15616;SDS011;7908;51.688;7.130;2023-03-23T00:21:28;10.57;;;6.53;;
15616;SDS011;7908;51.688;7.130;2023-03-23T00:24:01;7.93;;;5.93;;
15616;SDS011;7908;51.688;7.130;2023-03-23T00:26:31;9.50;;;5.77;;
15616;SDS011;7908;51.688;7.130;2023-03-23T00:29:00;9.07;;;6.20;;
15616;SDS011;7908;51.688;7.130;2023-03-23T00:31:30;8.57;;;6.23;;
15616;SDS011;7908;51.688;7.130;2023-03-23T00:33:58;8.30;;;5.87;;
15616;SDS011;7908;51.688;7.130;2023-03-23T00:36:29;7.97;;;6.00;;
15616;SDS011;7908;51.688;7.130;2023-03-23T00:38:58;11.93;;;6.03;;
15616;SDS011;7908;51.688;7.130;2023-03-23T00:41:26;7.70;;;5.93;;
15616;SDS011;7908;51.688;7.130;2023-03-23T00:43:55;7.47;;;5.50;;
15616;SDS011;7908;51.688;7.130;2023-03-23T00:46:23;9.20;;;6.03;;
15616;SDS011;7908;51.688;7.130;2023-03-23T00:48:52;8.97;;;5.90;;
15616;SDS011;7908;51.688;7.130;2023-03-23T00:51:19;6.93;;;5.43;;
15616;SDS011;7908;51.688;7.130;2023-03-23T00:53:47;8.27;;;5.50;;
15616;SDS011;7908;51.688;7.130;2023-03-23T00:56:15;11.50;;;6.57;;
15616;SDS011;7908;51.688;7.130;2023-03-23T00:58:42;10.33;;;7.73;;
15616;SDS011;7908;51.688;7.130;2023-03-23T01:01:10;9.40;;;6.43;;
15616;SDS011;7908;51.688;7.130;2023-03-23T01:03:37;7.33;;;6.03;;
15616;SDS011;7908;51.688;7.130;2023-03-23T01:06:07;7.73;;;5.20;;
15616;SDS011;7908;51.688;7.130;2023-03-23T01:08:38;9.57;;;6.90;;
15616;SDS011;7908;51.688;7.130;2023-03-23T01:11:11;10.40;;;5.10;;
15616;SDS011;7908;51.688;7.130;2023-03-23T01:13:40;9.83;;;4.97;;
15616;SDS011;7908;51.688;7.130;2023-03-23T01:16:07;8.53;;;5.97;;
15616;SDS011;7908;51.688;7.130;2023-03-23T01:18:36;7.83;;;4.60;;
15616;SDS011;7908;51.688;7.130;2023-03-23T01:21:04;4.93;;;4.13;;
15616;SDS011;7908;51.688;7.130;2023-03-23T01:23:35;6.67;;;4.33;;
15616;SDS011;7908;51.688;7.130;2023-03-23T01:26:03;7.37;;;5.50;;
15616;SDS011;7908;51.688;7.130;2023-03-23T01:28:32;6.97;;;5.20;;
15616;SDS011;7908;51.688;7.130;2023-03-23T01:31:01;6.90;;;4.50;;
15616;SDS011;7908;51.688;7.130;2023-03-23T01:33:30;5.67;;;4.40;;
15616;SDS011;7908;51.688;7.130;2023-03-23T01:36:02;6.63;;;4.43;;
15616;SDS011;7908;51.688;7.130;2023-03-23T01:38:32;6.63;;;4.43;;
15616;SDS011;7908;51.688;7.130;2023-03-23T01:41:00;6.90;;;4.37;;
15616;SDS011;7908;51.688;7.130;2023-03-23T01:43:29;5.50;;;4.33;;
15616;SDS011;7908;51.688;7.130;2023-03-23T01:45:57;6.53;;;4.83;;
15616;SDS011;7908;51.688;7.130;2023-03-23T01:48:25;8.90;;;4.17;;
15616;SDS011;7908;51.688;7.130;2023-03-23T01:50:55;6.23;;;4.17;;
15616;SDS011;7908;51.688;7.130;2023-03-23T01:53:26;5.57;;;4.00;;
15616;SDS011;7908;51.688;7.130;2023-03-23T01:55:59;5.17;;;4.10;;
15616;SDS011;7908;51.688;7.130;2023-03-23T01:58:29;4.53;;;3.50;;
15616;SDS011;7908;51.688;7.130;2023-03-23T02:01:00;4.83;;;3.70;;
15616;SDS011;7908;51.688;7.130;2023-03-23T02:03:31;6.10;;;3.77;;
15616;SDS011;7908;51.688;7.130;2023-03-23T02:06:01;6.73;;;3.80;;
15616;SDS011;7908;51.688;7.130;2023-03-23T02:08:29;5.67;;;3.60;;
15616;SDS011;7908;51.688;7.130;2023-03-23T02:11:00;4.67;;;3.23;;
15616;SDS011;7908;51.688;7.130;2023-03-23T02:13:30;5.60;;;3.40;;
15616;SDS011;7908;51.688;7.130;2023-03-23T02:16:00;5.80;;;3.43;;
15616;SDS011;7908;51.688;7.130;2023-03-23T02:18:42;4.33;;;3.17;;
15616;SDS011;7908;51.688;7.130;2023-03-23T02:24:44;5.90;;;3.40;;
15616;SDS011;7908;51.688;7.130;2023-03-23T02:30:55;6.70;;;3.43;;
15616;SDS011;7908;51.688;7.130;2023-03-23T02:33:37;4.40;;;3.23;;
15616;SDS011;7908;51.688;7.130;2023-03-23T02:36:13;5.63;;;3.87;;
15616;SDS011;7908;51.688;7.130;2023-03-23T02:38:49;8.87;;;4.67;;
15616;SDS011;7908;51.688;7.130;2023-03-23T02:41:20;4.27;;;3.50;;
15616;SDS011;7908;51.688;7.130;2023-03-23T02:43:50;5.30;;;3.60;;
15616;SDS011;7908;51.688;7.130;2023-03-23T02:46:19;7.27;;;4.37;;
15616;SDS011;7908;51.688;7.130;2023-03-23T02:48:50;5.57;;;3.83;;
15616;SDS011;7908;51.688;7.130;2023-03-23T02:51:20;5.47;;;3.90;;
15616;SDS011;7908;51.688;7.130;2023-03-23T02:53:49;3.97;;;3.50;;
15616;SDS011;7908;51.688;7.130;2023-03-23T02:56:20;6.47;;;3.90;;
15616;SDS011;7908;51.688;7.130;2023-03-23T02:58:49;4.80;;;3.90;;
15616;SDS011;7908;51.688;7.130;2023-03-23T03:04:18;4.00;;;3.50;;
15616;SDS011;7908;51.688;7.130;2023-03-23T03:06:50;5.17;;;3.37;;
15616;SDS011;7908;51.688;7.130;2023-03-23T03:09:33;3.83;;;3.43;;
15616;SDS011;7908;51.688;7.130;2023-03-23T03:12:09;3.60;;;3.30;;
15616;SDS011;7908;51.688;7.130;2023-03-23T03:14:41;5.80;;;4.03;;
15616;SDS011;7908;51.688;7.130;2023-03-23T03:17:17;6.10;;;4.10;;
15616;SDS011;7908;51.688;7.130;2023-03-23T03:19:52;5.13;;;4.17;;
15616;SDS011;7908;51.688;7.130;2023-03-23T03:22:25;3.67;;;3.37;;
15616;SDS011;7908;51.688;7.130;2023-03-23T03:24:55;4.20;;;3.60;;
15616;SDS011;7908;51.688;7.130;2023-03-23T03:27:24;4.50;;;3.23;;
15616;SDS011;7908;51.688;7.130;2023-03-23T03:29:53;6.40;;;3.97;;
15616;SDS011;7908;51.688;7.130;2023-03-23T03:32:25;6.43;;;3.77;;
15616;SDS011;7908;51.688;7.130;2023-03-23T03:35:00;4.53;;;3.50;;
15616;SDS011;7908;51.688;7.130;2023-03-23T03:37:32;5.00;;;4.00;;
15616;SDS011;7908;51.688;7.130;2023-03-23T03:40:03;4.33;;;3.57;;
15616;SDS011;7908;51.688;7.130;2023-03-23T03:42:36;4.47;;;3.40;;
15616;SDS011;7908;51.688;7.130;2023-03-23T03:45:04;3.67;;;3.00;;
15616;SDS011;7908;51.688;7.130;2023-03-23T03:47:33;6.17;;;3.50;;
15616;SDS011;7908;51.688;7.130;2023-03-23T03:50:02;4.07;;;2.67;;
15616;SDS011;7908;51.688;7.130;2023-03-23T03:52:31;3.87;;;3.03;;
15616;SDS011;7908;51.688;7.130;2023-03-23T03:54:58;3.37;;;2.97;;
15616;SDS011;7908;51.688;7.130;2023-03-23T03:57:26;3.40;;;3.10;;
15616;SDS011;7908;51.688;7.130;2023-03-23T03:59:53;4.40;;;3.00;;
15616;SDS011;7908;51.688;7.130;2023-03-23T04:02:21;4.13;;;3.03;;
15616;SDS011;7908;51.688;7.130;2023-03-23T04:04:49;5.43;;;3.17;;
15616;SDS011;7908;51.688;7.130;2023-03-23T04:07:19;6.57;;;3.10;;
15616;SDS011;7908;51.688;7.130;2023-03-23T04:09:47;4.63;;;3.30;;
15616;SDS011;7908;51.688;7.130;2023-03-23T04:12:14;3.73;;;3.17;;
15616;SDS011;7908;51.688;7.130;2023-03-23T04:14:42;5.67;;;3.53;;
15616;SDS011;7908;51.688;7.130;2023-03-23T04:17:09;5.07;;;3.13;;
15616;SDS011;7908;51.688;7.130;2023-03-23T04:19:37;4.70;;;3.37;;
15616;SDS011;7908;51.688;7.130;2023-03-23T04:22:05;5.27;;;3.20;;
15616;SDS011;7908;51.688;7.130;2023-03-23T04:24:34;5.53;;;3.30;;
15616;SDS011;7908;51.688;7.130;2023-03-23T04:27:01;5.80;;;3.70;;
15616;SDS011;7908;51.688;7.130;2023-03-23T04:29:29;4.97;;;3.70;;
15616;SDS011;7908;51.688;7.130;2023-03-23T04:31:59;5.63;;;3.70;;
15616;SDS011;7908;51.688;7.130;2023-03-23T04:34:27;3.43;;;3.10;;
15616;SDS011;7908;51.688;7.130;2023-03-23T04:36:59;4.70;;;3.10;;
15616;SDS011;7908;51.688;7.130;2023-03-23T04:39:26;4.27;;;3.40;;
15616;SDS011;7908;51.688;7.130;2023-03-23T04:41:56;4.00;;;3.20;;
15616;SDS011;7908;51.688;7.130;2023-03-23T04:44:26;4.33;;;3.37;;
15616;SDS011;7908;51.688;7.130;2023-03-23T04:46:54;5.23;;;3.40;;
15616;SDS011;7908;51.688;7.130;2023-03-23T04:49:21;4.03;;;3.00;;
15616;SDS011;7908;51.688;7.130;2023-03-23T04:51:49;3.80;;;3.40;;
15616;SDS011;7908;51.688;7.130;2023-03-23T04:54:17;6.00;;;3.07;;
15616;SDS011;7908;51.688;7.130;2023-03-23T04:56:45;4.17;;;3.23;;
15616;SDS011;7908;51.688;7.130;2023-03-23T04:59:13;9.03;;;6.83;;
15616;SDS011;7908;51.688;7.130;2023-03-23T05:01:41;12.47;;;10.87;;
15616;SDS011;7908;51.688;7.130;2023-03-23T05:04:11;11.33;;;9.20;;
15616;SDS011;7908;51.688;7.130;2023-03-23T05:06:42;12.33;;;8.93;;
15616;SDS011;7908;51.688;7.130;2023-03-23T05:09:11;8.07;;;5.93;;
15616;SDS011;7908;51.688;7.130;2023-03-23T05:11:39;8.43;;;5.53;;
15616;SDS011;7908;51.688;7.130;2023-03-23T05:14:06;4.87;;;3.50;;
15616;SDS011;7908;51.688;7.130;2023-03-23T05:16:36;6.67;;;4.17;;
15616;SDS011;7908;51.688;7.130;2023-03-23T05:19:03;8.47;;;4.10;;
15616;SDS011;7908;51.688;7.130;2023-03-23T05:21:32;6.30;;;3.37;;
15616;SDS011;7908;51.688;7.130;2023-03-23T05:24:00;4.63;;;2.80;;
15616;SDS011;7908;51.688;7.130;2023-03-23T05:26:28;6.17;;;3.20;;
15616;SDS011;7908;51.688;7.130;2023-03-23T05:28:55;6.13;;;3.60;;
15616;SDS011;7908;51.688;7.130;2023-03-23T05:31:24;6.00;;;3.37;;
15616;SDS011;7908;51.688;7.130;2023-03-23T05:33:53;4.53;;;2.87;;
15616;SDS011;7908;51.688;7.130;2023-03-23T05:36:21;5.97;;;3.70;;
15616;SDS011;7908;51.688;7.130;2023-03-23T05:38:50;4.27;;;3.33;;
15616;SDS011;7908;51.688;7.130;2023-03-23T05:41:18;5.27;;;2.90;;
15616;SDS011;7908;51.688;7.130;2023-03-23T05:43:46;4.33;;;2.80;;
15616;SDS011;7908;51.688;7.130;2023-03-23T05:46:13;5.67;;;3.43;;
15616;SDS011;7908;51.688;7.130;2023-03-23T05:48:41;3.37;;;2.77;;
15616;SDS011;7908;51.688;7.130;2023-03-23T05:51:10;5.70;;;3.47;;
15616;SDS011;7908;51.688;7.130;2023-03-23T05:53:37;4.40;;;3.37;;
15616;SDS011;7908;51.688;7.130;2023-03-23T05:56:04;3.20;;;2.70;;
15616;SDS011;7908;51.688;7.130;2023-03-23T05:58:33;6.23;;;3.20;;
15616;SDS011;7908;51.688;7.130;2023-03-23T06:01:01;5.17;;;3.53;;
15616;SDS011;7908;51.688;7.130;2023-03-23T06:03:33;6.13;;;3.00;;
15616;SDS011;7908;51.688;7.130;2023-03-23T06:06:01;4.27;;;3.20;;
15616;SDS011;7908;51.688;7.130;2023-03-23T06:08:30;4.33;;;2.87;;
15616;SDS011;7908;51.688;7.130;2023-03-23T06:10:58;4.53;;;2.90;;
15616;SDS011;7908;51.688;7.130;2023-03-23T06:13:26;6.63;;;2.97;;
15616;SDS011;7908;51.688;7.130;2023-03-23T06:15:54;4.83;;;2.93;;
15616;SDS011;7908;51.688;7.130;2023-03-23T06:18:23;5.70;;;3.00;;
15616;SDS011;7908;51.688;7.130;2023-03-23T06:20:52;5.10;;;2.97;;
15616;SDS011;7908;51.688;7.130;2023-03-23T06:23:20;5.50;;;3.17;;
15616;SDS011;7908;51.688;7.130;2023-03-23T06:25:49;6.17;;;3.30;;
15616;SDS011;7908;51.688;7.130;2023-03-23T06:28:19;4.30;;;3.00;;
15616;SDS011;7908;51.688;7.130;2023-03-23T06:30:47;4.10;;;3.20;;
15616;SDS011;7908;51.688;7.130;2023-03-23T06:33:15;7.03;;;3.93;;
15616;SDS011;7908;51.688;7.130;2023-03-23T06:35:43;6.13;;;3.27;;
15616;SDS011;7908;51.688;7.130;2023-03-23T06:38:10;3.47;;;3.17;;
15616;SDS011;7908;51.688;7.130;2023-03-23T06:40:38;3.77;;;2.60;;
15616;SDS011;7908;51.688;7.130;2023-03-23T06:43:08;6.07;;;3.63;;
15616;SDS011;7908;51.688;7.130;2023-03-23T06:45:36;3.93;;;2.70;;
15616;SDS011;7908;51.688;7.130;2023-03-23T06:48:03;6.87;;;3.47;;
15616;SDS011;7908;51.688;7.130;2023-03-23T06:50:31;5.43;;;2.80;;
15616;SDS011;7908;51.688;7.130;2023-03-23T06:52:59;4.20;;;2.70;;
15616;SDS011;7908;51.688;7.130;2023-03-23T06:55:26;4.83;;;2.93;;
15616;SDS011;7908;51.688;7.130;2023-03-23T06:57:54;4.83;;;2.90;;
15616;SDS011;7908;51.688;7.130;2023-03-23T07:00:23;5.57;;;3.10;;
15616;SDS011;7908;51.688;7.130;2023-03-23T07:02:50;5.40;;;3.40;;
15616;SDS011;7908;51.688;7.130;2023-03-23T07:05:18;4.57;;;2.53;;
15616;SDS011;7908;51.688;7.130;2023-03-23T07:07:46;6.83;;;2.90;;
15616;SDS011;7908;51.688;7.130;2023-03-23T07:10:13;3.80;;;2.83;;
15616;SDS011;7908;51.688;7.130;2023-03-23T07:12:41;4.93;;;2.40;;
15616;SDS011;7908;51.688;7.130;2023-03-23T07:15:09;7.30;;;2.90;;
15616;SDS011;7908;51.688;7.130;2023-03-23T07:17:39;6.00;;;2.90;;
15616;SDS011;7908;51.688;7.130;2023-03-23T07:20:07;4.50;;;2.77;;
15616;SDS011;7908;51.688;7.130;2023-03-23T07:22:36;5.83;;;2.97;;
15616;SDS011;7908;51.688;7.130;2023-03-23T07:25:03;4.67;;;2.63;;
15616;SDS011;7908;51.688;7.130;2023-03-23T07:27:31;5.77;;;3.20;;
15616;SDS011;7908;51.688;7.130;2023-03-23T07:29:59;5.10;;;3.00;;
15616;SDS011;7908;51.688;7.130;2023-03-23T07:32:27;5.73;;;2.90;;
15616;SDS011;7908;51.688;7.130;2023-03-23T07:34:56;5.40;;;2.50;;
15616;SDS011;7908;51.688;7.130;2023-03-23T07:37:24;5.17;;;2.63;;
15616;SDS011;7908;51.688;7.130;2023-03-23T07:39:53;5.07;;;2.37;;
15616;SDS011;7908;51.688;7.130;2023-03-23T07:42:21;5.70;;;2.70;;
15616;SDS011;7908;51.688;7.130;2023-03-23T07:44:48;5.00;;;2.30;;
15616;SDS011;7908;51.688;7.130;2023-03-23T07:47:16;5.73;;;2.23;;
15616;SDS011;7908;51.688;7.130;2023-03-23T07:49:44;5.17;;;2.63;;
15616;SDS011;7908;51.688;7.130;2023-03-23T07:52:13;3.73;;;2.30;;
15616;SDS011;7908;51.688;7.130;2023-03-23T07:54:41;4.87;;;2.50;;
15616;SDS011;7908;51.688;7.130;2023-03-23T07:57:08;4.33;;;2.33;;
15616;SDS011;7908;51.688;7.130;2023-03-23T07:59:37;6.80;;;2.67;;
15616;SDS011;7908;51.688;7.130;2023-03-23T08:02:05;4.43;;;2.20;;
15616;SDS011;7908;51.688;7.130;2023-03-23T08:04:34;3.90;;;2.03;;
15616;SDS011;7908;51.688;7.130;2023-03-23T08:07:03;3.73;;;2.00;;
15616;SDS011;7908;51.688;7.130;2023-03-23T08:09:32;8.63;;;2.00;;
15616;SDS011;7908;51.688;7.130;2023-03-23T08:12:00;4.10;;;1.87;;
15616;SDS011;7908;51.688;7.130;2023-03-23T08:14:28;4.97;;;2.10;;
15616;SDS011;7908;51.688;7.130;2023-03-23T08:16:57;5.00;;;2.03;;
15616;SDS011;7908;51.688;7.130;2023-03-23T08:19:25;4.57;;;2.00;;
15616;SDS011;7908;51.688;7.130;2023-03-23T08:21:53;3.20;;;1.50;;
15616;SDS011;7908;51.688;7.130;2023-03-23T08:24:20;4.70;;;2.13;;
15616;SDS011;7908;51.688;7.130;2023-03-23T08:26:49;4.40;;;1.77;;
15616;SDS011;7908;51.688;7.130;2023-03-23T08:29:17;5.03;;;1.80;;
15616;SDS011;7908;51.688;7.130;2023-03-23T08:31:45;6.23;;;1.80;;
15616;SDS011;7908;51.688;7.130;2023-03-23T08:34:13;6.03;;;2.23;;
15616;SDS011;7908;51.688;7.130;2023-03-23T08:36:41;4.57;;;1.93;;
15616;SDS011;7908;51.688;7.130;2023-03-23T08:39:11;4.80;;;2.00;;
15616;SDS011;7908;51.688;7.130;2023-03-23T08:41:39;3.60;;;1.70;;
15616;SDS011;7908;51.688;7.130;2023-03-23T08:44:08;9.07;;;2.33;;
15616;SDS011;7908;51.688;7.130;2023-03-23T08:46:36;6.90;;;2.30;;
15616;SDS011;7908;51.688;7.130;2023-03-23T08:49:04;8.27;;;2.77;;
15616;SDS011;7908;51.688;7.130;2023-03-23T08:51:33;5.27;;;2.20;;
15616;SDS011;7908;51.688;7.130;2023-03-23T08:54:01;4.67;;;2.27;;
15616;SDS011;7908;51.688;7.130;2023-03-23T08:56:29;5.70;;;2.10;;
15616;SDS011;7908;51.688;7.130;2023-03-23T08:58:56;5.80;;;2.43;;
15616;SDS011;7908;51.688;7.130;2023-03-23T09:01:26;6.77;;;2.40;;
15616;SDS011;7908;51.688;7.130;2023-03-23T09:03:54;7.43;;;2.37;;
15616;SDS011;7908;51.688;7.130;2023-03-23T09:06:21;5.23;;;2.50;;
15616;SDS011;7908;51.688;7.130;2023-03-23T09:08:49;7.27;;;2.87;;
15616;SDS011;7908;51.688;7.130;2023-03-23T09:11:16;6.20;;;2.33;;
15616;SDS011;7908;51.688;7.130;2023-03-23T09:13:44;8.00;;;2.53;;
15616;SDS011;7908;51.688;7.130;2023-03-23T09:16:12;5.77;;;2.10;;
15616;SDS011;7908;51.688;7.130;2023-03-23T09:18:41;9.50;;;2.40;;
15616;SDS011;7908;51.688;7.130;2023-03-23T09:21:11;5.43;;;2.10;;
15616;SDS011;7908;51.688;7.130;2023-03-23T09:23:39;6.93;;;2.63;;
15616;SDS011;7908;51.688;7.130;2023-03-23T09:26:10;4.03;;;2.00;;
15616;SDS011;7908;51.688;7.130;2023-03-23T09:28:38;7.10;;;2.43;;
15616;SDS011;7908;51.688;7.130;2023-03-23T09:31:06;5.13;;;2.13;;
15616;SDS011;7908;51.688;7.130;2023-03-23T09:33:34;6.60;;;2.27;;
15616;SDS011;7908;51.688;7.130;2023-03-23T09:36:03;9.63;;;3.30;;
15616;SDS011;7908;51.688;7.130;2023-03-23T09:38:33;8.57;;;2.40;;
15616;SDS011;7908;51.688;7.130;2023-03-23T09:41:04;3.00;;;1.00;;
15616;SDS011;7908;51.688;7.130;2023-03-23T09:43:47;3.77;;;1.10;;
15616;SDS011;7908;51.688;7.130;2023-03-23T09:46:31;5.37;;;1.40;;
15616;SDS011;7908;51.688;7.130;2023-03-23T09:49:13;4.80;;;1.20;;
15616;SDS011;7908;51.688;7.130;2023-03-23T09:51:46;3.60;;;1.30;;
15616;SDS011;7908;51.688;7.130;2023-03-23T09:54:19;2.60;;;1.10;;
15616;SDS011;7908;51.688;7.130;2023-03-23T09:56:49;5.43;;;1.00;;
15616;SDS011;7908;51.688;7.130;2023-03-23T09:59:23;4.53;;;1.40;;
15616;SDS011;7908;51.688;7.130;2023-03-23T10:01:55;3.07;;;1.33;;
15616;SDS011;7908;51.688;7.130;2023-03-23T10:04:28;2.53;;;1.00;;
15616;SDS011;7908;51.688;7.130;2023-03-23T10:07:05;3.30;;;1.30;;
15616;SDS011;7908;51.688;7.130;2023-03-23T10:09:37;3.23;;;1.03;;
15616;SDS011;7908;51.688;7.130;2023-03-23T10:12:09;3.87;;;1.30;;
15616;SDS011;7908;51.688;7.130;2023-03-23T10:14:50;3.73;;;1.27;;
15616;SDS011;7908;51.688;7.130;2023-03-23T10:17:27;4.83;;;1.33;;
15616;SDS011;7908;51.688;7.130;2023-03-23T10:20:04;5.73;;;1.40;;
15616;SDS011;7908;51.688;7.130;2023-03-23T10:22:48;4.30;;;1.30;;
15616;SDS011;7908;51.688;7.130;2023-03-23T10:25:22;3.47;;;1.67;;
15616;SDS011;7908;51.688;7.130;2023-03-23T10:27:56;2.43;;;0.83;;
15616;SDS011;7908;51.688;7.130;2023-03-23T10:30:29;4.23;;;1.50;;
15616;SDS011;7908;51.688;7.130;2023-03-23T10:33:01;3.30;;;1.50;;
15616;SDS011;7908;51.688;7.130;2023-03-23T10:35:33;3.20;;;1.53;;
15616;SDS011;7908;51.688;7.130;2023-03-23T10:38:14;3.37;;;1.50;;
15616;SDS011;7908;51.688;7.130;2023-03-23T10:40:45;5.17;;;1.13;;
15616;SDS011;7908;51.688;7.130;2023-03-23T10:43:18;4.93;;;1.60;;
15616;SDS011;7908;51.688;7.130;2023-03-23T10:45:47;2.23;;;1.10;;
15616;SDS011;7908;51.688;7.130;2023-03-23T10:48:19;4.77;;;1.40;;
15616;SDS011;7908;51.688;7.130;2023-03-23T10:50:51;4.03;;;1.20;;
15616;SDS011;7908;51.688;7.130;2023-03-23T10:53:26;4.30;;;1.63;;
15616;SDS011;7908;51.688;7.130;2023-03-23T10:55:57;3.00;;;1.23;;
15616;SDS011;7908;51.688;7.130;2023-03-23T10:58:27;4.57;;;1.30;;
15616;SDS011;7908;51.688;7.130;2023-03-23T11:00:57;4.80;;;1.23;;
15616;SDS011;7908;51.688;7.130;2023-03-23T11:03:29;3.47;;;1.17;;
15616;SDS011;7908;51.688;7.130;2023-03-23T11:06:06;4.60;;;1.20;;
15616;SDS011;7908;51.688;7.130;2023-03-23T11:08:38;5.43;;;1.50;;
15616;SDS011;7908;51.688;7.130;2023-03-23T11:11:15;6.20;;;1.37;;
15616;SDS011;7908;51.688;7.130;2023-03-23T11:13:46;4.90;;;1.47;;
15616;SDS011;7908;51.688;7.130;2023-03-23T11:16:23;4.33;;;1.63;;
15616;SDS011;7908;51.688;7.130;2023-03-23T11:18:52;5.07;;;1.20;;
15616;SDS011;7908;51.688;7.130;2023-03-23T11:21:20;3.07;;;1.30;;
15616;SDS011;7908;51.688;7.130;2023-03-23T11:23:51;4.53;;;1.70;;
15616;SDS011;7908;51.688;7.130;2023-03-23T11:26:21;5.00;;;1.80;;
15616;SDS011;7908;51.688;7.130;2023-03-23T11:28:53;2.47;;;1.00;;
15616;SDS011;7908;51.688;7.130;2023-03-23T11:31:27;4.70;;;1.70;;
15616;SDS011;7908;51.688;7.130;2023-03-23T11:33:57;3.87;;;1.70;;
15616;SDS011;7908;51.688;7.130;2023-03-23T11:36:33;4.30;;;1.43;;
15616;SDS011;7908;51.688;7.130;2023-03-23T11:39:16;4.10;;;1.50;;
15616;SDS011;7908;51.688;7.130;2023-03-23T11:41:47;4.33;;;1.63;;
15616;SDS011;7908;51.688;7.130;2023-03-23T11:44:15;7.70;;;2.77;;
15616;SDS011;7908;51.688;7.130;2023-03-23T11:46:48;4.77;;;2.27;;
15616;SDS011;7908;51.688;7.130;2023-03-23T11:49:28;4.43;;;1.80;;
15616;SDS011;7908;51.688;7.130;2023-03-23T11:52:08;4.27;;;1.93;;
15616;SDS011;7908;51.688;7.130;2023-03-23T11:54:46;5.20;;;2.37;;
15616;SDS011;7908;51.688;7.130;2023-03-23T11:57:17;4.50;;;2.20;;
15616;SDS011;7908;51.688;7.130;2023-03-23T11:59:45;4.13;;;2.93;;
15616;SDS011;7908;51.688;7.130;2023-03-23T12:02:21;4.03;;;2.33;;
15616;SDS011;7908;51.688;7.130;2023-03-23T12:05:15;2.93;;;1.27;;
15616;SDS011;7908;51.688;7.130;2023-03-23T12:08:12;3.13;;;1.60;;
15616;SDS011;7908;51.688;7.130;2023-03-23T12:10:52;5.60;;;2.80;;
15616;SDS011;7908;51.688;7.130;2023-03-23T12:13:40;2.80;;;1.73;;
15616;SDS011;7908;51.688;7.130;2023-03-23T12:16:21;3.63;;;1.60;;
15616;SDS011;7908;51.688;7.130;2023-03-23T12:18:58;3.07;;;2.20;;
15616;SDS011;7908;51.688;7.130;2023-03-23T12:21:34;5.37;;;2.13;;
15616;SDS011;7908;51.688;7.130;2023-03-23T12:24:12;5.33;;;1.97;;
15616;SDS011;7908;51.688;7.130;2023-03-23T12:26:52;4.83;;;1.80;;
15616;SDS011;7908;51.688;7.130;2023-03-23T12:29:29;3.03;;;1.50;;
15616;SDS011;7908;51.688;7.130;2023-03-23T12:32:17;4.10;;;1.90;;
15616;SDS011;7908;51.688;7.130;2023-03-23T12:34:58;3.43;;;2.30;;
15616;SDS011;7908;51.688;7.130;2023-03-23T12:37:38;3.70;;;1.80;;
15616;SDS011;7908;51.688;7.130;2023-03-23T12:40:29;5.43;;;2.70;;
15616;SDS011;7908;51.688;7.130;2023-03-23T12:43:13;2.83;;;1.97;;
15616;SDS011;7908;51.688;7.130;2023-03-23T12:46:01;4.90;;;1.67;;
15616;SDS011;7908;51.688;7.130;2023-03-23T12:48:37;4.27;;;2.57;;
15616;SDS011;7908;51.688;7.130;2023-03-23T12:51:10;4.20;;;2.47;;
15616;SDS011;7908;51.688;7.130;2023-03-23T12:53:46;4.97;;;2.50;;
15616;SDS011;7908;51.688;7.130;2023-03-23T12:56:20;4.97;;;2.97;;
15616;SDS011;7908;51.688;7.130;2023-03-23T12:58:56;5.17;;;3.00;;
15616;SDS011;7908;51.688;7.130;2023-03-23T13:01:30;4.83;;;3.30;;
15616;SDS011;7908;51.688;7.130;2023-03-23T13:04:02;5.07;;;3.53;;
15616;SDS011;7908;51.688;7.130;2023-03-23T13:06:34;6.30;;;3.27;;
15616;SDS011;7908;51.688;7.130;2023-03-23T13:09:05;6.10;;;3.60;;
15616;SDS011;7908;51.688;7.130;2023-03-23T13:11:48;5.63;;;3.87;;
15616;SDS011;7908;51.688;7.130;2023-03-23T13:14:23;6.23;;;3.70;;
15616;SDS011;7908;51.688;7.130;2023-03-23T13:16:58;7.00;;;3.30;;
15616;SDS011;7908;51.688;7.130;2023-03-23T13:19:34;6.57;;;3.80;;
15616;SDS011;7908;51.688;7.130;2023-03-23T13:22:15;5.63;;;3.50;;
15616;SDS011;7908;51.688;7.130;2023-03-23T13:24:50;6.27;;;4.20;;
15616;SDS011;7908;51.688;7.130;2023-03-23T13:27:22;7.57;;;3.70;;
15616;SDS011;7908;51.688;7.130;2023-03-23T13:29:52;10.43;;;4.70;;
15616;SDS011;7908;51.688;7.130;2023-03-23T13:32:22;5.17;;;4.03;;
15616;SDS011;7908;51.688;7.130;2023-03-23T13:34:57;4.93;;;4.10;;
15616;SDS011;7908;51.688;7.130;2023-03-23T13:37:29;8.83;;;4.77;;
15616;SDS011;7908;51.688;7.130;2023-03-23T13:42:48;7.37;;;5.83;;
15616;SDS011;7908;51.688;7.130;2023-03-23T13:45:21;6.67;;;5.63;;
15616;SDS011;7908;51.688;7.130;2023-03-23T13:48:04;8.60;;;5.00;;
15616;SDS011;7908;51.688;7.130;2023-03-23T13:50:48;6.07;;;5.20;;
15616;SDS011;7908;51.688;7.130;2023-03-23T13:53:23;6.70;;;5.73;;
15616;SDS011;7908;51.688;7.130;2023-03-23T13:56:05;8.07;;;6.00;;
15616;SDS011;7908;51.688;7.130;2023-03-23T13:58:45;8.40;;;5.77;;
15616;SDS011;7908;51.688;7.130;2023-03-23T14:01:17;10.60;;;7.10;;
15616;SDS011;7908;51.688;7.130;2023-03-23T14:03:47;8.30;;;5.67;;
15616;SDS011;7908;51.688;7.130;2023-03-23T14:06:17;7.97;;;5.20;;
15616;SDS011;7908;51.688;7.130;2023-03-23T14:08:48;12.17;;;5.80;;
15616;SDS011;7908;51.688;7.130;2023-03-23T14:11:19;8.57;;;5.83;;
15616;SDS011;7908;51.688;7.130;2023-03-23T14:13:56;10.43;;;5.07;;
15616;SDS011;7908;51.688;7.130;2023-03-23T14:16:35;7.90;;;4.37;;
15616;SDS011;7908;51.688;7.130;2023-03-23T14:19:19;7.37;;;4.10;;
15616;SDS011;7908;51.688;7.130;2023-03-23T14:21:54;9.23;;;4.60;;
15616;SDS011;7908;51.688;7.130;2023-03-23T14:24:24;5.87;;;3.90;;
15616;SDS011;7908;51.688;7.130;2023-03-23T14:27:01;7.13;;;3.73;;
15616;SDS011;7908;51.688;7.130;2023-03-23T14:29:37;9.57;;;4.53;;
15616;SDS011;7908;51.688;7.130;2023-03-23T14:32:09;6.63;;;3.83;;
15616;SDS011;7908;51.688;7.130;2023-03-23T14:34:41;5.70;;;3.50;;
15616;SDS011;7908;51.688;7.130;2023-03-23T14:37:11;5.83;;;2.90;;
15616;SDS011;7908;51.688;7.130;2023-03-23T14:39:44;7.83;;;5.13;;
15616;SDS011;7908;51.688;7.130;2023-03-23T14:42:14;4.97;;;2.93;;
15616;SDS011;7908;51.688;7.130;2023-03-23T14:44:44;4.17;;;2.37;;
15616;SDS011;7908;51.688;7.130;2023-03-23T14:47:18;4.93;;;2.87;;
15616;SDS011;7908;51.688;7.130;2023-03-23T14:49:52;10.53;;;3.47;;
15616;SDS011;7908;51.688;7.130;2023-03-23T14:52:22;5.63;;;2.80;;
15616;SDS011;7908;51.688;7.130;2023-03-23T14:54:55;5.37;;;2.50;;
15616;SDS011;7908;51.688;7.130;2023-03-23T14:57:39;8.83;;;3.90;;
15616;SDS011;7908;51.688;7.130;2023-03-23T15:00:12;7.80;;;4.57;;
15616;SDS011;7908;51.688;7.130;2023-03-23T15:02:43;7.13;;;4.70;;
15616;SDS011;7908;51.688;7.130;2023-03-23T15:05:14;6.97;;;4.20;;
15616;SDS011;7908;51.688;7.130;2023-03-23T15:07:45;7.63;;;5.27;;
15616;SDS011;7908;51.688;7.130;2023-03-23T15:10:22;7.50;;;5.50;;
15616;SDS011;7908;51.688;7.130;2023-03-23T15:12:51;6.67;;;4.93;;
15616;SDS011;7908;51.688;7.130;2023-03-23T15:15:24;7.03;;;4.97;;
15616;SDS011;7908;51.688;7.130;2023-03-23T15:17:55;7.80;;;3.90;;
15616;SDS011;7908;51.688;7.130;2023-03-23T15:20:28;8.63;;;3.93;;
15616;SDS011;7908;51.688;7.130;2023-03-23T15:22:57;5.03;;;3.80;;
15616;SDS011;7908;51.688;7.130;2023-03-23T15:25:33;6.50;;;3.93;;
15616;SDS011;7908;51.688;7.130;2023-03-23T15:28:07;5.13;;;4.03;;
15616;SDS011;7908;51.688;7.130;2023-03-23T15:30:46;6.23;;;4.10;;
15616;SDS011;7908;51.688;7.130;2023-03-23T15:33:16;6.20;;;4.40;;
15616;SDS011;7908;51.688;7.130;2023-03-23T15:35:51;6.27;;;4.17;;
15616;SDS011;7908;51.688;7.130;2023-03-23T15:38:20;6.83;;;3.63;;